createdAt,value
2022-12-25T02:35:38.482Z,14.60
2022-12-25T02:46:30.710Z,15.77
2022-12-25T02:51:48.205Z,15.13
2022-12-25T02:57:03.605Z,14.30
2022-12-25T03:02:15.076Z,13.40
2022-12-25T03:07:18.853Z,14.90
2022-12-25T03:12:24.944Z,15.90
2022-12-25T03:17:16.868Z,15.60
2022-12-25T03:22:47.923Z,19.60
2022-12-25T03:27:44.168Z,16.37
2022-12-25T03:33:18.083Z,15.30
2022-12-25T03:38:52.382Z,15.97
2022-12-25T03:44:11.783Z,14.70
2022-12-25T03:49:38.335Z,16.33
2022-12-25T03:54:52.211Z,15.27
2022-12-25T04:00:04.248Z,16.37
2022-12-25T04:05:14.692Z,16.97
2022-12-25T04:10:26.186Z,15.87
2022-12-25T04:15:36.627Z,19.20
2022-12-25T04:20:47.133Z,18.40
2022-12-25T04:25:57.378Z,17.73
2022-12-25T04:31:08.160Z,18.33
2022-12-25T04:36:08.875Z,20.50
2022-12-25T04:41:01.882Z,25.87
2022-12-25T04:45:59.629Z,23.77
2022-12-25T04:50:51.932Z,27.30
2022-12-25T04:55:43.950Z,29.43
2022-12-25T05:00:36.790Z,35.00
2022-12-25T05:05:29.408Z,32.57
2022-12-25T05:10:21.628Z,29.20
2022-12-25T05:15:13.741Z,36.03
2022-12-25T05:20:07.507Z,34.27
2022-12-25T05:24:59.925Z,44.03
2022-12-25T05:29:52.026Z,41.83
2022-12-25T05:34:43.889Z,38.17
2022-12-25T05:39:36.202Z,44.30
2022-12-25T05:44:28.021Z,39.67
2022-12-25T05:49:19.816Z,38.57
2022-12-25T05:54:12.076Z,37.23
2022-12-25T05:59:04.011Z,37.63
2022-12-25T06:03:57.492Z,35.73
2022-12-25T06:08:49.422Z,35.30
2022-12-25T06:13:42.947Z,50.57
2022-12-25T06:18:41.582Z,39.40
2022-12-25T06:23:33.664Z,29.03
2022-12-25T06:28:25.778Z,34.00
2022-12-25T06:33:17.577Z,32.30
2022-12-25T06:38:09.377Z,35.33
2022-12-25T06:43:01.607Z,37.03
2022-12-25T06:47:53.900Z,39.80
2022-12-25T06:52:45.962Z,39.50
2022-12-25T06:57:38.889Z,37.27
2022-12-25T07:02:33.793Z,32.07
2022-12-25T07:07:26.344Z,35.23
2022-12-25T07:12:25.025Z,32.13
2022-12-25T07:17:18.897Z,30.10
2022-12-25T07:22:11.394Z,31.53
2022-12-25T07:27:03.268Z,32.80
2022-12-25T07:31:55.371Z,25.80
2022-12-25T07:36:47.374Z,36.30
2022-12-25T07:41:40.510Z,32.30
2022-12-25T07:46:34.485Z,25.00
2022-12-25T07:51:26.883Z,36.23
2022-12-25T07:56:20.503Z,30.17
2022-12-25T08:01:25.898Z,27.13
2022-12-25T08:06:18.433Z,26.00
2022-12-25T08:11:11.153Z,30.87
2022-12-25T08:16:10.131Z,43.70
2022-12-25T08:21:14.111Z,27.30
2022-12-25T08:26:08.824Z,30.60
2022-12-25T08:31:10.161Z,34.43
2022-12-25T08:36:08.223Z,23.17
2022-12-25T08:41:01.389Z,23.70
2022-12-25T08:46:01.237Z,23.33
2022-12-25T08:50:54.320Z,29.40
2022-12-25T08:55:46.392Z,24.57
2022-12-25T09:00:39.191Z,25.03
2022-12-25T09:05:31.293Z,22.27
2022-12-25T09:10:23.868Z,25.63
2022-12-25T09:15:15.984Z,21.93
2022-12-25T09:20:11.050Z,26.17
2022-12-25T09:25:04.893Z,17.67
2022-12-25T09:29:57.720Z,18.33
2022-12-25T09:34:53.273Z,18.60
2022-12-25T09:39:46.581Z,14.33
2022-12-25T09:50:28.891Z,15.63
2022-12-25T09:55:32.523Z,16.67
2022-12-25T10:06:00.199Z,14.87
2022-12-25T10:11:16.596Z,12.03
2022-12-25T10:16:48.646Z,12.47
2022-12-25T10:21:43.467Z,11.83
2022-12-25T10:26:37.579Z,11.03
2022-12-25T10:31:36.127Z,10.50
2022-12-25T10:36:30.596Z,11.03
2022-12-25T10:42:04.796Z,10.20
2022-12-25T10:47:00.566Z,14.53
2022-12-25T10:51:53.728Z,11.57
2022-12-25T10:57:26.182Z,10.13
2022-12-25T11:02:40.298Z,12.70
2022-12-25T11:07:46.612Z,9.33
2022-12-25T11:12:46.616Z,8.90
2022-12-25T11:17:39.305Z,8.17
2022-12-25T11:22:31.252Z,6.10
2022-12-25T11:27:30.656Z,5.67
2022-12-25T11:32:49.660Z,7.17
2022-12-25T11:37:51.582Z,6.27
2022-12-25T11:43:19.816Z,5.33
2022-12-25T11:48:19.343Z,6.80
2022-12-25T11:53:22.899Z,8.23
2022-12-25T12:03:48.503Z,16.90
2022-12-25T12:08:41.496Z,8.77
2022-12-25T12:13:58.327Z,7.10
2022-12-25T12:18:50.922Z,4.30
2022-12-25T12:24:10.158Z,8.53
2022-12-25T12:29:05.764Z,13.03
2022-12-25T12:33:59.970Z,6.53
2022-12-25T12:38:52.469Z,5.20
2022-12-25T12:43:58.566Z,7.07
2022-12-25T12:48:58.391Z,11.33
2022-12-25T12:53:51.856Z,6.80
2022-12-25T12:58:51.869Z,7.67
2022-12-25T13:10:13.682Z,5.50
2022-12-25T13:15:14.657Z,5.70
2022-12-25T13:20:21.655Z,4.60
2022-12-25T13:30:30.367Z,6.23
2022-12-25T13:35:25.887Z,7.13
2022-12-25T13:40:28.508Z,10.67
2022-12-25T13:45:29.799Z,7.23
2022-12-25T13:55:35.881Z,9.67
2022-12-25T14:00:39.285Z,9.73
2022-12-25T14:05:43.381Z,11.23
2022-12-25T14:10:41.350Z,9.00
2022-12-25T14:15:37.939Z,8.10
2022-12-25T14:20:39.808Z,7.97
2022-12-25T14:25:43.571Z,11.13
2022-12-25T14:30:36.745Z,9.27
2022-12-25T14:35:29.606Z,10.83
2022-12-25T14:40:47.999Z,9.10
2022-12-25T14:45:40.582Z,7.67
2022-12-25T14:50:40.533Z,9.43
2022-12-25T14:55:34.827Z,8.27
2022-12-25T15:00:39.226Z,9.43
2022-12-25T15:05:39.247Z,8.70
2022-12-25T15:15:53.632Z,9.80
2022-12-25T15:20:47.730Z,10.43
2022-12-25T15:25:39.708Z,10.73
2022-12-25T15:30:35.105Z,13.03
2022-12-25T15:35:27.572Z,11.23
2022-12-25T15:40:21.649Z,13.60
2022-12-25T15:45:27.080Z,10.73
2022-12-25T15:50:21.129Z,12.83
2022-12-25T15:55:15.046Z,11.97
2022-12-25T16:00:14.028Z,10.97
2022-12-25T16:05:10.422Z,13.33
2022-12-25T16:10:03.280Z,14.87
2022-12-25T16:20:04.399Z,14.07
2022-12-25T16:25:00.006Z,15.97
2022-12-25T16:29:52.549Z,16.40
2022-12-25T16:34:46.214Z,14.60
2022-12-25T16:39:38.957Z,16.27
2022-12-25T16:44:31.345Z,17.37
2022-12-25T16:49:24.362Z,15.93
2022-12-25T16:59:24.227Z,15.47
2022-12-25T17:04:15.996Z,16.63
2022-12-25T17:09:07.913Z,15.63
2022-12-25T17:14:04.845Z,14.67
2022-12-25T17:24:29.996Z,16.57
2022-12-25T17:44:42.423Z,15.53
2022-12-25T17:49:34.892Z,13.60
2022-12-25T17:54:27.903Z,15.30
2022-12-25T17:59:20.664Z,15.20
2022-12-25T18:04:12.724Z,16.73
2022-12-25T18:09:10.031Z,16.00
2022-12-25T18:14:06.118Z,18.70
2022-12-25T18:19:00.288Z,16.67
2022-12-25T18:23:53.187Z,17.03
2022-12-25T18:28:46.073Z,20.00
2022-12-25T18:33:38.618Z,17.30
2022-12-25T18:38:32.330Z,20.43
2022-12-25T18:43:51.577Z,20.13
2022-12-25T18:48:45.891Z,19.93
2022-12-25T18:53:38.879Z,20.07
2022-12-25T18:58:33.589Z,19.93
2022-12-25T19:03:25.568Z,18.03
2022-12-25T19:08:17.712Z,18.70
2022-12-25T19:13:10.184Z,19.60
2022-12-25T19:18:03.025Z,19.33
2022-12-25T19:22:55.309Z,16.67
2022-12-25T19:27:52.473Z,18.23
2022-12-25T19:32:44.360Z,17.73
2022-12-25T19:37:44.191Z,12.53
2022-12-25T19:42:37.451Z,14.37
2022-12-25T19:52:35.568Z,16.23
2022-12-25T19:57:27.609Z,45.47
2022-12-25T20:02:21.096Z,51.90
2022-12-25T20:07:13.644Z,21.73
2022-12-25T20:12:06.389Z,21.03
2022-12-25T20:16:58.875Z,26.07
2022-12-25T20:21:50.936Z,22.20
2022-12-25T20:26:47.628Z,37.93
2022-12-25T20:31:42.498Z,23.47
2022-12-25T20:36:37.748Z,23.30
2022-12-25T20:41:30.617Z,31.23
2022-12-25T20:46:23.497Z,26.93
2022-12-25T20:51:20.559Z,23.30
2022-12-25T21:01:21.824Z,28.73
2022-12-25T21:06:13.919Z,23.53
2022-12-25T21:11:07.510Z,22.20
2022-12-25T21:16:00.349Z,14.77
2022-12-25T21:20:57.367Z,14.50
2022-12-25T21:25:50.383Z,15.10
2022-12-25T21:30:42.874Z,12.90
2022-12-25T21:35:38.923Z,13.93
2022-12-25T21:45:45.400Z,16.40
2022-12-25T21:50:56.503Z,14.17
2022-12-25T21:56:06.513Z,17.70
2022-12-25T22:01:06.525Z,32.27
2022-12-25T22:06:21.650Z,23.97
2022-12-25T22:11:41.080Z,16.17
2022-12-25T22:21:58.051Z,22.13
2022-12-25T22:26:49.977Z,14.43
2022-12-25T22:36:51.153Z,22.27
2022-12-25T22:41:43.234Z,17.47
2022-12-25T22:46:36.386Z,17.13
2022-12-25T22:51:29.517Z,19.37
2022-12-25T22:56:21.809Z,19.40
2022-12-25T23:01:15.105Z,18.83
2022-12-25T23:06:07.927Z,22.87
2022-12-25T23:11:05.130Z,19.30
2022-12-25T23:21:23.791Z,20.60
2022-12-25T23:26:20.053Z,16.43
2022-12-25T23:36:18.434Z,25.57
2022-12-25T23:41:10.803Z,23.50
2022-12-25T23:51:09.855Z,15.77
